createdAt,value
2019-03-10T00:00:52.301Z,0.00
2019-03-10T00:01:52.290Z,0.00
2019-03-10T00:02:52.279Z,0.00
2019-03-10T00:03:52.269Z,0.00
2019-03-10T00:04:52.260Z,0.00
2019-03-10T00:05:52.521Z,0.00
2019-03-10T00:06:52.234Z,0.00
2019-03-10T00:07:52.223Z,0.00
2019-03-10T00:08:52.213Z,0.00
2019-03-10T00:09:52.204Z,0.00
2019-03-10T00:10:52.191Z,0.00
2019-03-10T00:11:52.187Z,0.00
2019-03-10T00:12:52.169Z,0.00
2019-03-10T00:13:52.157Z,0.00
2019-03-10T00:14:52.145Z,0.00
2019-03-10T00:15:52.138Z,0.00
2019-03-10T00:16:52.123Z,0.00
2019-03-10T00:17:52.119Z,0.00
2019-03-10T00:18:52.102Z,0.00
2019-03-10T00:19:52.092Z,0.00
2019-03-10T00:20:52.079Z,0.00
2019-03-10T00:21:52.073Z,0.00
2019-03-10T00:22:52.059Z,0.00
2019-03-10T00:23:52.056Z,0.00
2019-03-10T00:24:52.036Z,0.00
2019-03-10T00:25:52.024Z,0.00
2019-03-10T00:26:52.013Z,0.00
2019-03-10T00:27:52.003Z,0.00
2019-03-10T00:28:51.990Z,0.00
2019-03-10T00:29:52.304Z,0.00
2019-03-10T00:30:51.974Z,0.00
2019-03-10T00:31:51.958Z,0.00
2019-03-10T00:32:51.948Z,0.00
2019-03-10T00:33:51.935Z,0.00
2019-03-10T00:34:51.926Z,0.00
2019-03-10T00:35:52.188Z,0.00
2019-03-10T00:36:51.903Z,0.00
2019-03-10T00:37:51.891Z,0.00
2019-03-10T00:38:51.879Z,0.00
2019-03-10T00:39:51.869Z,0.00
2019-03-10T00:40:51.859Z,0.00
2019-03-10T00:41:51.859Z,0.00
2019-03-10T00:42:51.847Z,0.00
2019-03-10T00:43:51.823Z,0.00
2019-03-10T00:44:51.816Z,0.00
2019-03-10T00:45:51.802Z,0.00
2019-03-10T00:46:51.792Z,0.00
2019-03-10T00:47:51.789Z,0.00
2019-03-10T00:48:51.771Z,0.00
2019-03-10T00:49:51.778Z,0.00
2019-03-10T00:50:51.748Z,0.00
2019-03-10T00:51:51.736Z,0.00
2019-03-10T00:52:51.725Z,0.00
2019-03-10T00:53:51.720Z,0.00
2019-03-10T00:54:51.703Z,0.00
2019-03-10T00:55:51.691Z,0.00
2019-03-10T00:56:51.680Z,0.00
2019-03-10T00:57:51.670Z,0.00
2019-03-10T00:58:51.658Z,0.00
2019-03-10T00:59:51.667Z,0.00
2019-03-10T01:00:51.636Z,0.00
2019-03-10T01:01:51.627Z,0.00
2019-03-10T01:02:51.614Z,0.00
2019-03-10T01:03:51.604Z,0.00
2019-03-10T01:04:51.592Z,0.00
2019-03-10T01:05:51.907Z,0.00
2019-03-10T01:06:51.569Z,0.00
2019-03-10T01:07:51.561Z,0.00
2019-03-10T01:08:51.548Z,0.00
2019-03-10T01:09:51.537Z,0.00
2019-03-10T01:10:51.528Z,0.00
2019-03-10T01:11:51.522Z,0.00
2019-03-10T01:12:51.504Z,0.00
2019-03-10T01:13:51.492Z,0.00
2019-03-10T01:14:51.482Z,0.00
2019-03-10T01:15:51.470Z,0.00
2019-03-10T01:16:51.459Z,0.00
2019-03-10T01:17:51.468Z,0.00
2019-03-10T01:18:51.436Z,0.00
2019-03-10T01:19:51.427Z,0.00
2019-03-10T01:20:51.414Z,0.00
2019-03-10T01:21:51.404Z,0.00
2019-03-10T01:22:51.393Z,0.00
2019-03-10T01:23:51.661Z,0.00
2019-03-10T01:24:51.370Z,0.00
2019-03-10T01:25:51.370Z,0.00
2019-03-10T01:26:51.348Z,0.00
2019-03-10T01:27:51.337Z,0.00
2019-03-10T01:28:51.326Z,0.00
2019-03-10T01:29:51.334Z,0.00
2019-03-10T01:30:51.303Z,0.00
2019-03-10T01:31:51.292Z,0.00
2019-03-10T01:32:51.282Z,0.00
2019-03-10T01:33:51.269Z,0.00
2019-03-10T01:34:51.259Z,0.00
2019-03-10T01:35:51.255Z,0.00
2019-03-10T01:36:51.238Z,0.00
2019-03-10T01:37:51.226Z,0.00
2019-03-10T01:38:51.216Z,0.00
2019-03-10T01:39:51.203Z,0.00
2019-03-10T01:40:51.192Z,0.00
2019-03-10T01:41:51.201Z,0.00
2019-03-10T01:42:51.171Z,0.00
2019-03-10T01:43:51.160Z,0.00
2019-03-10T01:44:51.148Z,0.00
2019-03-10T01:45:51.137Z,0.00
2019-03-10T01:46:51.126Z,0.00
2019-03-10T01:47:51.392Z,0.00
2019-03-10T01:48:51.106Z,0.00
2019-03-10T01:49:51.093Z,0.00
2019-03-10T01:50:51.082Z,0.00
2019-03-10T01:51:51.071Z,0.00
2019-03-10T01:52:51.060Z,0.00
2019-03-10T01:53:51.068Z,0.00
2019-03-10T01:54:51.038Z,0.00
2019-03-10T01:55:51.026Z,0.00
2019-03-10T01:56:51.015Z,0.00
2019-03-10T01:57:51.004Z,0.00
2019-03-10T01:58:50.993Z,0.00
2019-03-10T01:59:50.989Z,0.00
2019-03-10T02:00:50.972Z,0.00
2019-03-10T02:01:50.959Z,0.00
2019-03-10T02:02:50.952Z,0.00
2019-03-10T02:03:50.938Z,0.00
2019-03-10T02:04:50.927Z,0.00
2019-03-10T02:05:50.924Z,0.00
2019-03-10T02:06:50.905Z,0.00
2019-03-10T02:07:50.893Z,0.00
2019-03-10T02:08:50.883Z,0.00
2019-03-10T02:09:50.871Z,0.00
2019-03-10T02:10:50.864Z,0.00
2019-03-10T02:11:50.858Z,0.00
2019-03-10T02:12:50.838Z,0.00
2019-03-10T02:13:50.830Z,0.00
2019-03-10T02:14:50.816Z,0.00
2019-03-10T02:15:50.804Z,0.00
2019-03-10T02:16:50.797Z,0.00
2019-03-10T02:17:51.119Z,0.00
2019-03-10T02:18:50.773Z,0.00
2019-03-10T02:19:50.760Z,0.00
2019-03-10T02:20:50.749Z,0.00
2019-03-10T02:21:50.740Z,0.00
2019-03-10T02:22:50.728Z,0.00
2019-03-10T02:23:50.999Z,0.00
2019-03-10T02:24:50.705Z,0.00
2019-03-10T02:25:50.694Z,0.00
2019-03-10T02:26:50.683Z,0.00
2019-03-10T02:27:50.671Z,0.00
2019-03-10T02:28:50.661Z,0.00
2019-03-10T02:29:50.659Z,0.00
2019-03-10T02:30:50.652Z,0.00
2019-03-10T02:31:50.630Z,0.00
2019-03-10T02:32:50.626Z,0.00
2019-03-10T02:33:50.608Z,0.00
2019-03-10T02:34:50.595Z,0.00
2019-03-10T02:35:50.594Z,0.00
2019-03-10T02:36:50.589Z,0.00
2019-03-10T02:37:50.571Z,0.00
2019-03-10T02:38:50.552Z,0.00
2019-03-10T02:39:50.546Z,0.00
2019-03-10T02:40:50.531Z,0.00
2019-03-10T02:41:50.524Z,0.00
2019-03-10T02:42:50.506Z,0.00
2019-03-10T02:43:50.494Z,0.00
2019-03-10T02:44:50.485Z,0.00
2019-03-10T02:45:50.471Z,0.00
2019-03-10T02:46:50.461Z,0.00
2019-03-10T02:47:50.779Z,0.00
2019-03-10T02:48:50.438Z,0.00
2019-03-10T02:49:50.450Z,0.00
2019-03-10T02:50:50.426Z,0.00
2019-03-10T02:51:50.409Z,0.00
2019-03-10T02:52:50.397Z,0.00
2019-03-10T02:53:50.395Z,0.00
2019-03-10T02:54:50.376Z,0.00
2019-03-10T02:55:50.368Z,0.00
2019-03-10T02:56:50.361Z,0.00
2019-03-10T02:57:50.340Z,0.00
2019-03-10T02:58:50.329Z,0.00
2019-03-10T02:59:50.338Z,0.00
2019-03-10T03:00:50.306Z,0.00
2019-03-10T03:01:50.296Z,0.00
2019-03-10T03:02:50.284Z,0.00
2019-03-10T03:03:50.272Z,0.00
2019-03-10T03:04:50.262Z,0.00
2019-03-10T03:05:50.283Z,0.00
2019-03-10T03:06:50.241Z,0.00
2019-03-10T03:07:50.229Z,0.00
2019-03-10T03:08:50.217Z,0.00
2019-03-10T03:09:50.206Z,0.00
2019-03-10T03:10:50.196Z,0.00
2019-03-10T03:11:50.473Z,0.00
2019-03-10T03:12:50.176Z,0.00
2019-03-10T03:13:50.177Z,0.00
2019-03-10T03:14:50.158Z,0.00
2019-03-10T03:15:50.156Z,0.00
2019-03-10T03:16:52.721Z,0.00
2019-03-10T03:17:50.128Z,0.00
2019-03-10T03:18:50.111Z,0.00
2019-03-10T03:19:50.097Z,0.00
2019-03-10T03:20:50.085Z,0.00
2019-03-10T03:21:50.073Z,0.00
2019-03-10T03:22:50.062Z,0.00
2019-03-10T03:23:50.380Z,0.00
2019-03-10T03:24:50.043Z,0.00
2019-03-10T03:25:50.029Z,0.00
2019-03-10T03:26:50.017Z,0.00
2019-03-10T03:27:50.013Z,0.00
2019-03-10T03:28:49.996Z,0.00
2019-03-10T03:29:49.991Z,0.00
2019-03-10T03:30:49.983Z,0.00
2019-03-10T03:31:49.964Z,0.00
2019-03-10T03:32:49.954Z,0.00
2019-03-10T03:33:49.942Z,0.00
2019-03-10T03:34:49.929Z,0.00
2019-03-10T03:35:49.928Z,0.00
2019-03-10T03:36:49.933Z,0.00
2019-03-10T03:37:49.897Z,0.00
2019-03-10T03:38:49.885Z,0.00
2019-03-10T03:39:49.880Z,0.00
2019-03-10T03:40:49.878Z,0.00
2019-03-10T03:41:49.860Z,0.00
2019-03-10T03:42:49.947Z,0.00
2019-03-10T03:43:49.830Z,0.00
2019-03-10T03:44:49.821Z,0.00
2019-03-10T03:45:49.809Z,0.00
2019-03-10T03:46:49.797Z,0.00
2019-03-10T03:47:49.805Z,0.00
2019-03-10T03:48:49.776Z,0.00
2019-03-10T03:49:49.764Z,0.00
2019-03-10T03:50:49.753Z,0.00
2019-03-10T03:51:49.742Z,0.00
2019-03-10T03:52:49.734Z,0.00
2019-03-10T03:53:50.014Z,0.00
2019-03-10T03:54:49.708Z,0.00
2019-03-10T03:55:49.695Z,0.00
2019-03-10T03:56:49.685Z,0.00
2019-03-10T03:57:49.713Z,0.00
2019-03-10T03:58:49.662Z,0.00
2019-03-10T03:59:49.983Z,0.00
2019-03-10T04:00:49.646Z,0.00
2019-03-10T04:01:49.645Z,0.00
2019-03-10T04:02:49.624Z,0.00
2019-03-10T04:03:49.608Z,0.00
2019-03-10T04:04:49.598Z,0.00
2019-03-10T04:05:49.606Z,0.00
2019-03-10T04:06:49.593Z,0.00
2019-03-10T04:07:49.564Z,0.00
2019-03-10T04:08:49.553Z,0.00
2019-03-10T04:09:49.544Z,0.00
2019-03-10T04:10:49.531Z,0.00
2019-03-10T04:11:49.525Z,0.00
2019-03-10T04:12:49.509Z,0.00
2019-03-10T04:13:49.498Z,0.00
2019-03-10T04:14:49.487Z,0.00
2019-03-10T04:15:49.490Z,0.00
2019-03-10T04:16:49.467Z,0.00
2019-03-10T04:17:49.459Z,0.00
2019-03-10T04:18:49.446Z,0.00
2019-03-10T04:19:49.430Z,0.00
2019-03-10T04:20:49.420Z,0.00
2019-03-10T04:21:49.409Z,0.00
2019-03-10T04:22:49.454Z,0.00
2019-03-10T04:23:49.666Z,0.00
2019-03-10T04:24:49.376Z,0.00
2019-03-10T04:25:49.368Z,0.00
2019-03-10T04:26:49.354Z,0.00
2019-03-10T04:27:49.347Z,0.00
2019-03-10T04:28:49.330Z,0.00
2019-03-10T04:29:49.326Z,0.00
2019-03-10T04:30:49.309Z,0.00
2019-03-10T04:31:49.303Z,0.00
2019-03-10T04:32:49.286Z,0.00
2019-03-10T04:33:49.275Z,0.00
2019-03-10T04:34:49.274Z,0.00
2019-03-10T04:35:49.580Z,0.00
2019-03-10T04:36:49.258Z,0.00
2019-03-10T04:37:49.230Z,0.00
2019-03-10T04:38:49.219Z,0.00
2019-03-10T04:39:49.208Z,0.00
2019-03-10T04:40:49.197Z,0.00
2019-03-10T04:41:49.209Z,0.00
2019-03-10T04:42:49.175Z,0.00
2019-03-10T04:43:49.164Z,0.00
2019-03-10T04:44:49.154Z,0.00
2019-03-10T04:45:49.142Z,0.00
2019-03-10T04:46:49.132Z,0.00
2019-03-10T04:47:49.402Z,0.00
2019-03-10T04:48:49.110Z,0.00
2019-03-10T04:49:49.103Z,0.00
2019-03-10T04:50:49.087Z,0.00
2019-03-10T04:51:49.084Z,0.00
2019-03-10T04:52:49.066Z,0.00
2019-03-10T04:53:49.061Z,0.00
2019-03-10T04:54:49.042Z,0.00
2019-03-10T04:55:49.030Z,0.00
2019-03-10T04:56:49.019Z,0.00
2019-03-10T04:57:49.009Z,0.00
2019-03-10T04:58:48.999Z,0.00
2019-03-10T04:59:49.270Z,0.00
2019-03-10T05:00:48.976Z,0.00
2019-03-10T05:01:48.964Z,0.00
2019-03-10T05:02:48.953Z,0.00
2019-03-10T05:03:48.943Z,0.00
2019-03-10T05:04:48.932Z,0.00
2019-03-10T05:05:48.928Z,0.00
2019-03-10T05:06:48.912Z,0.00
2019-03-10T05:07:48.898Z,0.00
2019-03-10T05:08:48.891Z,0.00
2019-03-10T05:09:48.875Z,0.00
2019-03-10T05:10:48.865Z,0.00
2019-03-10T05:11:48.861Z,0.00
2019-03-10T05:12:48.843Z,0.00
2019-03-10T05:13:48.831Z,0.00
2019-03-10T05:14:48.819Z,0.00
2019-03-10T05:15:48.809Z,0.00
2019-03-10T05:16:48.798Z,0.00
2019-03-10T05:17:48.807Z,0.00
2019-03-10T05:18:48.776Z,0.00
2019-03-10T05:19:48.764Z,0.00
2019-03-10T05:20:48.753Z,0.00
2019-03-10T05:21:48.746Z,0.00
2019-03-10T05:22:48.734Z,0.00
2019-03-10T05:23:48.728Z,0.00
2019-03-10T05:24:48.713Z,0.00
2019-03-10T05:25:48.698Z,0.00
2019-03-10T05:26:48.686Z,0.00
2019-03-10T05:27:48.675Z,0.00
2019-03-10T05:28:48.665Z,0.00
2019-03-10T05:29:48.988Z,0.00
2019-03-10T05:30:48.642Z,0.00
2019-03-10T05:31:48.632Z,0.00
2019-03-10T05:32:48.620Z,0.00
2019-03-10T05:33:48.610Z,0.00
2019-03-10T05:34:48.600Z,0.00
2019-03-10T05:35:48.894Z,0.00
2019-03-10T05:36:48.576Z,0.00
2019-03-10T05:37:48.570Z,0.00
2019-03-10T05:38:48.553Z,0.00
2019-03-10T05:39:48.544Z,0.00
2019-03-10T05:40:48.601Z,0.00
2019-03-10T05:41:48.530Z,0.00
2019-03-10T05:42:48.511Z,0.00
2019-03-10T05:43:48.500Z,0.00
2019-03-10T05:44:48.489Z,0.00
2019-03-10T05:45:48.480Z,0.00
2019-03-10T05:46:48.465Z,0.00
2019-03-10T05:47:48.778Z,0.00
2019-03-10T05:48:48.443Z,0.00
2019-03-10T05:49:48.431Z,0.00
2019-03-10T05:50:48.421Z,0.00
2019-03-10T05:51:48.409Z,0.00
2019-03-10T05:52:48.398Z,0.00
2019-03-10T05:53:48.396Z,0.00
2019-03-10T05:54:48.376Z,0.00
2019-03-10T05:55:48.365Z,0.00
2019-03-10T05:56:48.354Z,0.00
2019-03-10T05:57:48.342Z,0.00
2019-03-10T05:58:48.331Z,0.00
2019-03-10T05:59:48.327Z,0.00
2019-03-10T06:00:48.310Z,0.00
2019-03-10T06:01:48.298Z,0.00
2019-03-10T06:02:48.290Z,0.00
2019-03-10T06:03:48.339Z,0.00
2019-03-10T06:04:48.266Z,0.00
2019-03-10T06:05:48.264Z,0.00
2019-03-10T06:06:48.243Z,0.00
2019-03-10T06:07:48.232Z,0.00
2019-03-10T06:08:48.227Z,4.00
2019-03-10T06:09:48.210Z,4.00
2019-03-10T06:10:48.199Z,4.00
2019-03-10T06:11:48.462Z,4.00
2019-03-10T06:12:48.176Z,4.00
2019-03-10T06:13:48.170Z,4.00
2019-03-10T06:14:48.154Z,4.00
2019-03-10T06:15:48.143Z,0.00
2019-03-10T06:16:48.143Z,0.00
2019-03-10T06:17:48.178Z,0.00
2019-03-10T06:18:48.111Z,0.00
2019-03-10T06:19:48.114Z,0.00
2019-03-10T06:20:48.087Z,0.00
2019-03-10T06:21:48.077Z,0.00
2019-03-10T06:22:48.066Z,0.00
2019-03-10T06:23:48.075Z,0.00
2019-03-10T06:24:48.045Z,4.00
2019-03-10T06:25:48.036Z,4.00
2019-03-10T06:26:48.024Z,4.00
2019-03-10T06:27:48.010Z,4.00
2019-03-10T06:28:47.999Z,4.00
2019-03-10T06:29:47.996Z,4.00
2019-03-10T06:30:47.979Z,4.00
2019-03-10T06:31:47.966Z,4.00
2019-03-10T06:32:47.956Z,4.00
2019-03-10T06:33:47.944Z,4.00
2019-03-10T06:34:47.933Z,0.00
2019-03-10T06:35:48.252Z,4.00
2019-03-10T06:36:47.913Z,4.00
2019-03-10T06:37:47.904Z,4.00
2019-03-10T06:38:47.889Z,4.00
2019-03-10T06:39:47.879Z,8.00
2019-03-10T06:40:47.866Z,8.00
2019-03-10T06:41:47.862Z,8.00
2019-03-10T06:42:47.845Z,8.00
2019-03-10T06:43:47.833Z,8.00
2019-03-10T06:44:47.822Z,8.00
2019-03-10T06:45:47.811Z,8.00
2019-03-10T06:46:47.799Z,8.00
2019-03-10T06:47:49.637Z,8.00
2019-03-10T06:48:47.776Z,12.00
2019-03-10T06:49:47.766Z,8.00
2019-03-10T06:50:47.755Z,4.00
2019-03-10T06:51:47.743Z,4.00
2019-03-10T06:52:47.733Z,8.00
2019-03-10T06:53:47.729Z,4.00
2019-03-10T06:54:47.711Z,4.00
2019-03-10T06:55:47.699Z,8.00
2019-03-10T06:56:47.688Z,8.00
2019-03-10T06:57:47.680Z,4.00
2019-03-10T06:58:47.669Z,8.00
2019-03-10T06:59:49.876Z,8.00
2019-03-10T07:00:47.645Z,8.00
2019-03-10T07:01:47.635Z,8.00
2019-03-10T07:02:47.623Z,8.00
2019-03-10T07:03:47.616Z,8.00
2019-03-10T07:04:47.600Z,8.00
2019-03-10T07:05:47.605Z,8.00
2019-03-10T07:06:47.576Z,8.00
2019-03-10T07:07:47.567Z,8.00
2019-03-10T07:08:47.555Z,8.00
2019-03-10T07:09:47.543Z,8.00
2019-03-10T07:10:47.557Z,8.00
2019-03-10T07:11:47.540Z,8.00
2019-03-10T07:12:47.514Z,8.00
2019-03-10T07:13:47.500Z,8.00
2019-03-10T07:14:47.492Z,8.00
2019-03-10T07:15:47.478Z,4.00
2019-03-10T07:16:47.467Z,4.00
2019-03-10T07:17:47.465Z,4.00
2019-03-10T07:18:47.444Z,4.00
2019-03-10T07:19:47.433Z,8.00
2019-03-10T07:20:47.423Z,8.00
2019-03-10T07:21:47.411Z,8.00
2019-03-10T07:22:47.399Z,8.00
2019-03-10T07:23:47.662Z,8.00
2019-03-10T07:24:47.377Z,8.00
2019-03-10T07:25:47.366Z,8.00
2019-03-10T07:26:47.355Z,8.00
2019-03-10T07:27:47.345Z,8.00
2019-03-10T07:28:47.333Z,8.00
2019-03-10T07:29:47.329Z,8.00
2019-03-10T07:30:47.313Z,8.00
2019-03-10T07:31:47.300Z,8.00
2019-03-10T07:32:47.289Z,12.00
2019-03-10T07:33:47.278Z,8.00
2019-03-10T07:34:47.267Z,8.00
2019-03-10T07:35:47.581Z,8.00
2019-03-10T07:36:47.245Z,8.00
2019-03-10T07:37:47.233Z,8.00
2019-03-10T07:38:47.223Z,8.00
2019-03-10T07:39:47.212Z,8.00
2019-03-10T07:40:47.199Z,8.00
2019-03-10T07:41:47.195Z,8.00
2019-03-10T07:42:47.179Z,8.00
2019-03-10T07:43:47.170Z,12.00
2019-03-10T07:44:47.157Z,12.00
2019-03-10T07:45:47.163Z,8.00
2019-03-10T07:46:47.134Z,8.00
2019-03-10T07:47:47.143Z,8.00
2019-03-10T07:48:47.111Z,8.00
2019-03-10T07:49:47.100Z,8.00
2019-03-10T07:50:47.089Z,8.00
2019-03-10T07:51:47.078Z,8.00
2019-03-10T07:52:47.067Z,8.00
2019-03-10T07:53:47.063Z,12.00
2019-03-10T07:54:47.044Z,12.00
2019-03-10T07:55:47.033Z,12.00
2019-03-10T07:56:47.025Z,12.00
2019-03-10T07:57:47.013Z,12.00
2019-03-10T07:58:47.001Z,12.00
2019-03-10T07:59:47.258Z,12.00
2019-03-10T08:00:46.978Z,16.00
2019-03-10T08:01:46.969Z,16.00
2019-03-10T08:02:46.962Z,12.00
2019-03-10T08:03:46.945Z,16.00
2019-03-10T08:04:46.948Z,12.00
2019-03-10T08:05:46.930Z,12.00
2019-03-10T08:06:46.912Z,16.00
2019-03-10T08:07:46.901Z,16.00
2019-03-10T08:08:46.889Z,16.00
2019-03-10T08:09:46.880Z,16.00
2019-03-10T08:10:46.868Z,16.00
2019-03-10T08:11:46.876Z,16.00
2019-03-10T08:12:46.846Z,16.00
2019-03-10T08:13:46.834Z,20.00
2019-03-10T08:14:46.827Z,16.00
2019-03-10T08:15:46.811Z,16.00
2019-03-10T08:16:46.801Z,20.00
2019-03-10T08:17:46.796Z,20.00
2019-03-10T08:18:46.779Z,16.00
2019-03-10T08:19:46.767Z,20.00
2019-03-10T08:20:46.758Z,20.00
2019-03-10T08:21:46.747Z,20.00
2019-03-10T08:22:46.735Z,20.00
2019-03-10T08:23:46.730Z,20.00
2019-03-10T08:24:46.716Z,16.00
2019-03-10T08:25:46.700Z,16.00
2019-03-10T08:26:46.691Z,12.00
2019-03-10T08:27:46.678Z,16.00
2019-03-10T08:28:46.669Z,12.00
2019-03-10T08:29:46.664Z,12.00
2019-03-10T08:30:46.644Z,12.00
2019-03-10T08:31:46.633Z,12.00
2019-03-10T08:32:46.623Z,16.00
2019-03-10T08:33:46.613Z,12.00
2019-03-10T08:34:46.628Z,16.00
2019-03-10T08:35:46.858Z,16.00
2019-03-10T08:36:46.580Z,16.00
2019-03-10T08:37:46.572Z,20.00
2019-03-10T08:38:46.562Z,24.00
2019-03-10T08:39:46.548Z,24.00
2019-03-10T08:40:46.536Z,20.00
2019-03-10T08:41:46.846Z,24.00
2019-03-10T08:42:46.514Z,24.00
2019-03-10T08:43:46.501Z,24.00
2019-03-10T08:44:46.491Z,24.00
2019-03-10T08:45:46.480Z,20.00
2019-03-10T08:46:46.471Z,16.00
2019-03-10T08:47:46.477Z,20.00
2019-03-10T08:48:46.448Z,16.00
2019-03-10T08:49:46.435Z,16.00
2019-03-10T08:50:46.422Z,20.00
2019-03-10T08:51:46.413Z,16.00
2019-03-10T08:52:46.401Z,16.00
2019-03-10T08:53:46.396Z,16.00
2019-03-10T08:54:46.384Z,16.00
2019-03-10T08:55:46.368Z,16.00
2019-03-10T08:56:46.356Z,16.00
2019-03-10T08:57:46.346Z,16.00
2019-03-10T08:58:46.336Z,16.00
2019-03-10T08:59:46.331Z,16.00
2019-03-10T09:00:46.314Z,16.00
2019-03-10T09:01:46.301Z,20.00
2019-03-10T09:02:46.292Z,16.00
2019-03-10T09:03:46.278Z,16.00
2019-03-10T09:04:46.268Z,16.00
2019-03-10T09:05:46.264Z,20.00
2019-03-10T09:06:46.249Z,28.00
2019-03-10T09:07:46.234Z,24.00
2019-03-10T09:08:46.224Z,20.00
2019-03-10T09:09:46.214Z,20.00
2019-03-10T09:10:46.203Z,20.00
2019-03-10T09:11:46.465Z,20.00
2019-03-10T09:12:46.182Z,28.00
2019-03-10T09:13:46.169Z,20.00
2019-03-10T09:14:46.156Z,20.00
2019-03-10T09:15:46.147Z,28.00
2019-03-10T09:16:46.134Z,24.00
2019-03-10T09:17:46.450Z,20.00
2019-03-10T09:18:46.113Z,16.00
2019-03-10T09:19:46.102Z,20.00
2019-03-10T09:20:46.090Z,20.00
2019-03-10T09:21:46.080Z,20.00
2019-03-10T09:22:46.069Z,16.00
2019-03-10T09:23:46.064Z,16.00
2019-03-10T09:24:46.046Z,20.00
2019-03-10T09:25:46.036Z,20.00
2019-03-10T09:26:46.029Z,20.00
2019-03-10T09:27:46.013Z,20.00
2019-03-10T09:28:46.005Z,24.00
2019-03-10T09:29:46.012Z,24.00
2019-03-10T09:30:45.982Z,20.00
2019-03-10T09:31:45.984Z,20.00
2019-03-10T09:32:45.957Z,24.00
2019-03-10T09:33:45.947Z,20.00
2019-03-10T09:34:45.935Z,20.00
2019-03-10T09:35:45.931Z,20.00
2019-03-10T09:36:45.914Z,20.00
2019-03-10T09:37:45.902Z,20.00
2019-03-10T09:38:45.895Z,20.00
2019-03-10T09:39:45.885Z,20.00
2019-03-10T09:40:45.870Z,16.00
2019-03-10T09:41:46.428Z,16.00
2019-03-10T09:42:45.846Z,16.00
2019-03-10T09:43:45.836Z,16.00
2019-03-10T09:44:45.824Z,16.00
2019-03-10T09:45:45.813Z,16.00
2019-03-10T09:46:45.801Z,16.00
2019-03-10T09:47:46.078Z,16.00
2019-03-10T09:48:45.782Z,16.00
2019-03-10T09:49:45.769Z,16.00
2019-03-10T09:50:45.763Z,16.00
2019-03-10T09:51:45.747Z,16.00
2019-03-10T09:52:45.735Z,16.00
2019-03-10T09:53:45.745Z,16.00
2019-03-10T09:54:45.715Z,16.00
2019-03-10T09:55:45.703Z,16.00
2019-03-10T09:56:45.691Z,12.00
2019-03-10T09:57:45.680Z,12.00
2019-03-10T09:58:45.669Z,12.00
2019-03-10T09:59:45.989Z,12.00
2019-03-10T10:00:45.648Z,12.00
2019-03-10T10:01:45.638Z,12.00
2019-03-10T10:02:45.624Z,12.00
2019-03-10T10:03:45.613Z,8.00
2019-03-10T10:04:45.605Z,12.00
2019-03-10T10:05:45.600Z,12.00
2019-03-10T10:06:45.581Z,12.00
2019-03-10T10:07:45.569Z,16.00
2019-03-10T10:08:45.558Z,16.00
2019-03-10T10:09:45.550Z,16.00
2019-03-10T10:10:45.535Z,12.00
2019-03-10T10:11:45.530Z,12.00
2019-03-10T10:12:45.514Z,16.00
2019-03-10T10:13:45.503Z,12.00
2019-03-10T10:14:45.492Z,12.00
2019-03-10T10:15:45.480Z,12.00
2019-03-10T10:16:45.469Z,12.00
2019-03-10T10:17:45.465Z,12.00
2019-03-10T10:18:45.450Z,12.00
2019-03-10T10:19:45.438Z,12.00
2019-03-10T10:20:45.424Z,12.00
2019-03-10T10:21:45.413Z,12.00
2019-03-10T10:22:45.403Z,12.00
2019-03-10T10:23:45.677Z,12.00
2019-03-10T10:24:45.382Z,12.00
2019-03-10T10:25:45.373Z,12.00
2019-03-10T10:26:45.358Z,12.00
2019-03-10T10:27:45.349Z,12.00
2019-03-10T10:28:45.335Z,12.00
2019-03-10T10:29:45.344Z,8.00
2019-03-10T10:30:45.314Z,12.00
2019-03-10T10:31:45.302Z,12.00
2019-03-10T10:32:45.291Z,12.00
2019-03-10T10:33:45.282Z,12.00
2019-03-10T10:34:45.271Z,8.00
2019-03-10T10:35:45.593Z,8.00
2019-03-10T10:36:45.248Z,8.00
2019-03-10T10:37:45.236Z,8.00
2019-03-10T10:38:45.225Z,8.00
2019-03-10T10:39:45.215Z,12.00
2019-03-10T10:40:45.203Z,12.00
2019-03-10T10:41:45.199Z,12.00
2019-03-10T10:42:45.179Z,8.00
2019-03-10T10:43:45.168Z,8.00
2019-03-10T10:44:45.158Z,12.00
2019-03-10T10:45:45.147Z,12.00
2019-03-10T10:46:45.136Z,8.00
2019-03-10T10:47:45.133Z,8.00
2019-03-10T10:48:45.116Z,12.00
2019-03-10T10:49:45.106Z,8.00
2019-03-10T10:50:45.100Z,8.00
2019-03-10T10:51:45.081Z,12.00
2019-03-10T10:52:45.075Z,8.00
2019-03-10T10:53:45.067Z,8.00
2019-03-10T10:54:45.047Z,8.00
2019-03-10T10:55:45.036Z,8.00
2019-03-10T10:56:45.042Z,8.00
2019-03-10T10:57:45.032Z,8.00
2019-03-10T10:58:45.002Z,8.00
2019-03-10T10:59:44.999Z,8.00
2019-03-10T11:00:44.981Z,8.00
2019-03-10T11:01:44.969Z,8.00
2019-03-10T11:02:44.958Z,8.00
2019-03-10T11:03:44.948Z,8.00
2019-03-10T11:04:44.936Z,4.00
2019-03-10T11:05:45.249Z,4.00
2019-03-10T11:06:44.915Z,4.00
2019-03-10T11:07:44.904Z,4.00
2019-03-10T11:08:44.893Z,4.00
2019-03-10T11:09:44.918Z,4.00
2019-03-10T11:10:44.874Z,4.00
2019-03-10T11:11:44.867Z,8.00
2019-03-10T11:12:44.849Z,8.00
2019-03-10T11:13:44.837Z,4.00
2019-03-10T11:14:44.830Z,4.00
2019-03-10T11:15:44.816Z,4.00
2019-03-10T11:16:45.582Z,8.00
2019-03-10T11:17:44.813Z,8.00
2019-03-10T11:18:44.782Z,8.00
2019-03-10T11:19:44.770Z,8.00
2019-03-10T11:20:44.759Z,8.00
2019-03-10T11:21:44.749Z,8.00
2019-03-10T11:22:44.737Z,8.00
2019-03-10T11:23:45.440Z,4.00
2019-03-10T11:24:44.715Z,8.00
2019-03-10T11:25:44.703Z,8.00
2019-03-10T11:26:44.693Z,12.00
2019-03-10T11:27:44.685Z,12.00
2019-03-10T11:28:44.673Z,12.00
2019-03-10T11:29:44.924Z,12.00
2019-03-10T11:30:44.648Z,8.00
2019-03-10T11:31:44.637Z,8.00
2019-03-10T11:32:44.626Z,8.00
2019-03-10T11:33:44.615Z,12.00
2019-03-10T11:34:44.605Z,8.00
2019-03-10T11:35:44.601Z,8.00
2019-03-10T11:36:44.582Z,8.00
2019-03-10T11:37:44.571Z,8.00
2019-03-10T11:38:44.559Z,8.00
2019-03-10T11:39:44.548Z,8.00
2019-03-10T11:40:44.539Z,8.00
2019-03-10T11:41:44.856Z,8.00
2019-03-10T11:42:44.515Z,8.00
2019-03-10T11:43:44.503Z,8.00
2019-03-10T11:44:44.493Z,8.00
2019-03-10T11:45:44.482Z,8.00
2019-03-10T11:46:44.471Z,8.00
2019-03-10T11:47:44.466Z,8.00
2019-03-10T11:48:44.449Z,4.00
2019-03-10T11:49:44.442Z,4.00
2019-03-10T11:50:44.426Z,4.00
2019-03-10T11:51:44.417Z,8.00
2019-03-10T11:52:44.404Z,8.00
2019-03-10T11:53:44.412Z,8.00
2019-03-10T11:54:44.382Z,8.00
2019-03-10T11:55:44.371Z,4.00
2019-03-10T11:56:44.361Z,4.00
2019-03-10T11:57:44.349Z,4.00
2019-03-10T11:58:44.337Z,8.00
2019-03-10T11:59:44.333Z,8.00
2019-03-10T12:00:44.315Z,8.00
2019-03-10T12:01:44.349Z,8.00
2019-03-10T12:02:44.293Z,8.00
2019-03-10T12:03:44.282Z,8.00
2019-03-10T12:04:44.279Z,8.00
2019-03-10T12:05:44.544Z,8.00
2019-03-10T12:06:44.247Z,8.00
2019-03-10T12:07:44.236Z,4.00
2019-03-10T12:08:44.226Z,4.00
2019-03-10T12:09:44.214Z,4.00
2019-03-10T12:10:44.203Z,4.00
2019-03-10T12:11:44.211Z,4.00
2019-03-10T12:12:44.182Z,4.00
2019-03-10T12:13:44.171Z,8.00
2019-03-10T12:14:44.159Z,8.00
2019-03-10T12:15:44.148Z,8.00
2019-03-10T12:16:44.136Z,8.00
2019-03-10T12:17:44.401Z,8.00
2019-03-10T12:18:44.114Z,12.00
2019-03-10T12:19:44.103Z,8.00
2019-03-10T12:20:44.094Z,12.00
2019-03-10T12:21:44.083Z,12.00
2019-03-10T12:22:44.071Z,12.00
2019-03-10T12:23:44.066Z,12.00
2019-03-10T12:24:44.048Z,12.00
2019-03-10T12:25:44.038Z,12.00
2019-03-10T12:26:44.029Z,12.00
2019-03-10T12:27:44.016Z,12.00
2019-03-10T12:28:44.006Z,12.00
2019-03-10T12:29:44.278Z,12.00
2019-03-10T12:30:43.983Z,12.00
2019-03-10T12:31:43.970Z,8.00
2019-03-10T12:32:43.961Z,12.00
2019-03-10T12:33:43.949Z,12.00
2019-03-10T12:34:43.937Z,12.00
2019-03-10T12:35:44.208Z,12.00
2019-03-10T12:36:43.952Z,16.00
2019-03-10T12:37:43.904Z,16.00
2019-03-10T12:38:43.893Z,16.00
2019-03-10T12:39:43.882Z,16.00
2019-03-10T12:40:43.875Z,16.00
2019-03-10T12:41:44.182Z,12.00
2019-03-10T12:42:43.849Z,12.00
2019-03-10T12:43:43.840Z,12.00
2019-03-10T12:44:43.825Z,12.00
2019-03-10T12:45:43.814Z,12.00
2019-03-10T12:46:43.811Z,16.00
2019-03-10T12:47:43.811Z,12.00
2019-03-10T12:48:43.783Z,12.00
2019-03-10T12:49:43.770Z,12.00
2019-03-10T12:50:43.760Z,12.00
2019-03-10T12:51:43.748Z,12.00
2019-03-10T12:52:43.737Z,12.00
2019-03-10T12:53:44.053Z,12.00
2019-03-10T12:54:43.717Z,12.00
2019-03-10T12:55:43.703Z,12.00
2019-03-10T12:56:43.694Z,8.00
2019-03-10T12:57:43.683Z,8.00
2019-03-10T12:58:43.671Z,12.00
2019-03-10T12:59:43.668Z,12.00
2019-03-10T13:00:43.648Z,8.00
2019-03-10T13:01:43.637Z,8.00
2019-03-10T13:02:43.626Z,8.00
2019-03-10T13:03:43.704Z,8.00
2019-03-10T13:04:43.605Z,8.00
2019-03-10T13:05:43.600Z,8.00
2019-03-10T13:06:43.602Z,8.00
2019-03-10T13:07:43.572Z,12.00
2019-03-10T13:08:43.558Z,8.00
2019-03-10T13:09:43.548Z,8.00
2019-03-10T13:10:43.542Z,12.00
2019-03-10T13:11:43.816Z,12.00